الصفحة الرئيسية
METAR-TAF:

METAR-TAF

مطار :

كرالييفو, صربيا

دائرة عرض: 43-49-07N, خط طول: 020-35-07E, ارتفاع: 209 متر

مراقبة الطقس الحالي

تاريخ ووقت الإصدار 47 دقيقة قبل الساعة 15:30UTC
ريح 12 عقدة من الشرق, الاتجاه يتراوح بين الشمال الشرقي و الجنوب الشرقي
درجة الحرارة 15°درجة مئوية
الرطوبة 18%
ضغط 1029 hPa
الرؤية 10 كم أو أكثر
الغيوم لا تقل 1500 م ولا وجود لمزنة ركامية السحاب الأسود

METAR: LYKV 061530Z 08012KT 050V130 CAVOK 15/M09 Q1029 NOSIG

زمن: 18:17 (16:17 UTC)

توقعات

تاريخ ووقت الإصدار 5ساعات و 17 دقيقة قبل الساعة 11:00UTC
التوقعات صالحة من06 الساعة 12 UTC إلى 07 الساعة 12 UTC
ريح 8 عقدة من الشرق
الرؤية 10 كم أو أكثر
الغيوم لا تقل 1500 م ولا وجود لمزنة ركامية السحاب الأسود
مؤقت
من 06 الساعة 12 UTC إلى 06 الساعة 16 UTC
ريح 15 عقدة من الجنوب الشرقي تتزايد حتى 25 عقدة

TAF: LYKV 061100Z 0612/0712 10008KT CAVOK TX16/0613Z TN00/0705Z TEMPO 0612/0616 14015G25KT

أرصاد الطقس والتوقعات من أكثر من 4000 مطار (تقارير الطقس للمطار METAR والتنبؤ بالطقس بالمطارTAF).

المحطات المتاحة هي النقط الصفراء والحمراء على الخريطة.

حرك المؤشر فوق النقطة لمعرفة اسم المحطة.

ثم انقر لمعرفة أرصاد وتوقعات الطقس.

لتغيير الخارطة: اضغط على الأزرار الخضراء مع رمز الصليب الأسود للتكبير. على الزر الأخضر مع شرطة للتصغير، أو على الأسهم الخضراء للخرائط المجاورة.


METAR-TAF: